sensor_id;sensor_type;location;lat;lon;timestamp;P1;durP1;ratioP1;P2;durP2;ratioP2
47812;SDS011;34221;45.296;9.516;2023-03-23T00:00:13;44.55;;;27.52;;
47812;SDS011;34221;45.296;9.516;2023-03-23T00:00:28;39.95;;;25.75;;
47812;SDS011;34221;45.296;9.516;2023-03-23T00:00:43;37.67;;;24.92;;
47812;SDS011;34221;45.296;9.516;2023-03-23T00:00:59;41.63;;;26.40;;
47812;SDS011;34221;45.296;9.516;2023-03-23T00:01:16;43.50;;;26.67;;
47812;SDS011;34221;45.296;9.516;2023-03-23T00:01:52;37.22;;;24.85;;
47812;SDS011;34221;45.296;9.516;2023-03-23T00:02:07;41.10;;;26.23;;
47812;SDS011;34221;45.296;9.516;2023-03-23T00:02:29;40.22;;;27.08;;
47812;SDS011;34221;45.296;9.516;2023-03-23T00:02:49;43.80;;;27.02;;
47812;SDS011;34221;45.296;9.516;2023-03-23T00:03:04;45.03;;;27.60;;
47812;SDS011;34221;45.296;9.516;2023-03-23T00:03:19;43.00;;;27.15;;
47812;SDS011;34221;45.296;9.516;2023-03-23T00:03:36;41.20;;;27.05;;
47812;SDS011;34221;45.296;9.516;2023-03-23T00:03:52;41.78;;;27.02;;
47812;SDS011;34221;45.296;9.516;2023-03-23T00:04:11;45.22;;;27.70;;
47812;SDS011;34221;45.296;9.516;2023-03-23T00:04:27;45.92;;;27.35;;
47812;SDS011;34221;45.296;9.516;2023-03-23T00:04:43;43.42;;;25.83;;
47812;SDS011;34221;45.296;9.516;2023-03-23T00:04:58;43.22;;;25.98;;
47812;SDS011;34221;45.296;9.516;2023-03-23T00:05:14;39.58;;;25.33;;
47812;SDS011;34221;45.296;9.516;2023-03-23T00:05:29;36.63;;;24.98;;
47812;SDS011;34221;45.296;9.516;2023-03-23T00:05:44;39.13;;;25.60;;
47812;SDS011;34221;45.296;9.516;2023-03-23T00:06:04;41.88;;;26.17;;
47812;SDS011;34221;45.296;9.516;2023-03-23T00:06:20;42.13;;;26.00;;
47812;SDS011;34221;45.296;9.516;2023-03-23T00:06:35;40.67;;;25.60;;
47812;SDS011;34221;45.296;9.516;2023-03-23T00:06:51;41.20;;;25.67;;
47812;SDS011;34221;45.296;9.516;2023-03-23T00:07:06;38.90;;;25.92;;
47812;SDS011;34221;45.296;9.516;2023-03-23T00:07:21;38.07;;;26.07;;
47812;SDS011;34221;45.296;9.516;2023-03-23T00:07:41;43.00;;;27.08;;
47812;SDS011;34221;45.296;9.516;2023-03-23T00:07:59;42.60;;;27.52;;
47812;SDS011;34221;45.296;9.516;2023-03-23T00:08:17;44.83;;;25.25;;
47812;SDS011;34221;45.296;9.516;2023-03-23T00:08:38;45.30;;;25.40;;
47812;SDS011;34221;45.296;9.516;2023-03-23T00:09:02;38.58;;;25.73;;
47812;SDS011;34221;45.296;9.516;2023-03-23T00:09:18;40.60;;;26.15;;
47812;SDS011;34221;45.296;9.516;2023-03-23T00:09:37;42.35;;;26.65;;
47812;SDS011;34221;45.296;9.516;2023-03-23T00:09:55;44.13;;;27.83;;
47812;SDS011;34221;45.296;9.516;2023-03-23T00:10:10;46.22;;;27.08;;
47812;SDS011;34221;45.296;9.516;2023-03-23T00:10:25;46.08;;;27.10;;
47812;SDS011;34221;45.296;9.516;2023-03-23T00:10:40;47.78;;;28.17;;
47812;SDS011;34221;45.296;9.516;2023-03-23T00:10:55;52.20;;;27.88;;
47812;SDS011;34221;45.296;9.516;2023-03-23T00:11:19;45.08;;;25.52;;
47812;SDS011;34221;45.296;9.516;2023-03-23T00:11:35;40.58;;;25.00;;
47812;SDS011;34221;45.296;9.516;2023-03-23T00:11:50;40.08;;;24.83;;
47812;SDS011;34221;45.296;9.516;2023-03-23T00:12:07;43.08;;;26.50;;
47812;SDS011;34221;45.296;9.516;2023-03-23T00:12:23;42.75;;;26.65;;
47812;SDS011;34221;45.296;9.516;2023-03-23T00:12:47;43.58;;;26.98;;
47812;SDS011;34221;45.296;9.516;2023-03-23T00:13:03;43.65;;;27.08;;
47812;SDS011;34221;45.296;9.516;2023-03-23T00:13:19;39.47;;;25.00;;
47812;SDS011;34221;45.296;9.516;2023-03-23T00:13:34;41.15;;;25.63;;
47812;SDS011;34221;45.296;9.516;2023-03-23T00:13:50;41.35;;;26.38;;
47812;SDS011;34221;45.296;9.516;2023-03-23T00:14:05;39.58;;;25.17;;
47812;SDS011;34221;45.296;9.516;2023-03-23T00:14:27;37.35;;;25.13;;
47812;SDS011;34221;45.296;9.516;2023-03-23T00:14:42;45.30;;;25.88;;
47812;SDS011;34221;45.296;9.516;2023-03-23T00:14:57;45.53;;;25.92;;
47812;SDS011;34221;45.296;9.516;2023-03-23T00:15:13;37.25;;;25.77;;
47812;SDS011;34221;45.296;9.516;2023-03-23T00:15:30;38.45;;;24.98;;
47812;SDS011;34221;45.296;9.516;2023-03-23T00:15:47;38.55;;;24.92;;
47812;SDS011;34221;45.296;9.516;2023-03-23T00:16:02;36.53;;;24.35;;
47812;SDS011;34221;45.296;9.516;2023-03-23T00:16:19;40.72;;;25.27;;
47812;SDS011;34221;45.296;9.516;2023-03-23T00:16:44;39.03;;;26.02;;
47812;SDS011;34221;45.296;9.516;2023-03-23T00:16:59;41.17;;;26.45;;
47812;SDS011;34221;45.296;9.516;2023-03-23T00:17:14;40.65;;;26.60;;
47812;SDS011;34221;45.296;9.516;2023-03-23T00:17:29;36.92;;;24.92;;
47812;SDS011;34221;45.296;9.516;2023-03-23T00:17:47;35.10;;;23.45;;
47812;SDS011;34221;45.296;9.516;2023-03-23T00:18:02;34.65;;;23.52;;
47812;SDS011;34221;45.296;9.516;2023-03-23T00:18:19;37.58;;;23.33;;
47812;SDS011;34221;45.296;9.516;2023-03-23T00:18:35;39.55;;;23.60;;
47812;SDS011;34221;45.296;9.516;2023-03-23T00:18:50;39.88;;;24.17;;
47812;SDS011;34221;45.296;9.516;2023-03-23T00:19:07;41.30;;;25.10;;
47812;SDS011;34221;45.296;9.516;2023-03-23T00:19:27;38.70;;;25.50;;
47812;SDS011;34221;45.296;9.516;2023-03-23T00:19:42;38.90;;;24.73;;
47812;SDS011;34221;45.296;9.516;2023-03-23T00:20:05;38.72;;;24.60;;
47812;SDS011;34221;45.296;9.516;2023-03-23T00:20:22;38.55;;;25.10;;
47812;SDS011;34221;45.296;9.516;2023-03-23T00:20:38;38.05;;;24.10;;
47812;SDS011;34221;45.296;9.516;2023-03-23T00:20:55;38.42;;;23.27;;
47812;SDS011;34221;45.296;9.516;2023-03-23T00:21:11;38.28;;;23.67;;
47812;SDS011;34221;45.296;9.516;2023-03-23T00:21:27;37.17;;;24.15;;
47812;SDS011;34221;45.296;9.516;2023-03-23T00:21:47;40.88;;;23.98;;
47812;SDS011;34221;45.296;9.516;2023-03-23T00:22:02;41.75;;;24.02;;
47812;SDS011;34221;45.296;9.516;2023-03-23T00:22:17;33.65;;;23.42;;
47812;SDS011;34221;45.296;9.516;2023-03-23T00:22:35;32.30;;;23.80;;
47812;SDS011;34221;45.296;9.516;2023-03-23T00:22:52;38.05;;;24.73;;
47812;SDS011;34221;45.296;9.516;2023-03-23T00:23:07;39.75;;;24.05;;
47812;SDS011;34221;45.296;9.516;2023-03-23T00:23:23;36.20;;;23.55;;
47812;SDS011;34221;45.296;9.516;2023-03-23T00:23:40;32.25;;;23.08;;
47812;SDS011;34221;45.296;9.516;2023-03-23T00:23:55;34.40;;;23.50;;
47812;SDS011;34221;45.296;9.516;2023-03-23T00:24:16;41.33;;;24.42;;
47812;SDS011;34221;45.296;9.516;2023-03-23T00:24:32;33.95;;;22.98;;
47812;SDS011;34221;45.296;9.516;2023-03-23T00:24:48;35.53;;;23.63;;
47812;SDS011;34221;45.296;9.516;2023-03-23T00:25:05;37.42;;;23.30;;
47812;SDS011;34221;45.296;9.516;2023-03-23T00:25:22;38.72;;;24.05;;
47812;SDS011;34221;45.296;9.516;2023-03-23T00:25:37;38.42;;;24.20;;
47812;SDS011;34221;45.296;9.516;2023-03-23T00:25:53;36.78;;;23.90;;
47812;SDS011;34221;45.296;9.516;2023-03-23T00:26:12;34.50;;;23.10;;
47812;SDS011;34221;45.296;9.516;2023-03-23T00:26:27;35.80;;;22.38;;
47812;SDS011;34221;45.296;9.516;2023-03-23T00:26:47;36.20;;;22.67;;
47812;SDS011;34221;45.296;9.516;2023-03-23T00:27:05;34.58;;;22.80;;
47812;SDS011;34221;45.296;9.516;2023-03-23T00:27:21;34.65;;;22.92;;
47812;SDS011;34221;45.296;9.516;2023-03-23T00:27:37;37.30;;;23.05;;
47812;SDS011;34221;45.296;9.516;2023-03-23T00:27:52;37.03;;;22.88;;
47812;SDS011;34221;45.296;9.516;2023-03-23T00:28:07;36.83;;;22.83;;
47812;SDS011;34221;45.296;9.516;2023-03-23T00:28:23;35.80;;;22.85;;
47812;SDS011;34221;45.296;9.516;2023-03-23T00:28:40;35.20;;;22.50;;
47812;SDS011;34221;45.296;9.516;2023-03-23T00:28:55;32.83;;;21.65;;
47812;SDS011;34221;45.296;9.516;2023-03-23T00:29:12;34.60;;;22.25;;
47812;SDS011;34221;45.296;9.516;2023-03-23T00:29:31;36.85;;;23.23;;
47812;SDS011;34221;45.296;9.516;2023-03-23T00:29:46;34.13;;;23.73;;
47812;SDS011;34221;45.296;9.516;2023-03-23T00:30:07;36.97;;;23.02;;
47812;SDS011;34221;45.296;9.516;2023-03-23T00:30:25;38.70;;;21.98;;
47812;SDS011;34221;45.296;9.516;2023-03-23T00:30:40;37.88;;;22.45;;
47812;SDS011;34221;45.296;9.516;2023-03-23T00:30:57;36.08;;;22.48;;
47812;SDS011;34221;45.296;9.516;2023-03-23T00:31:17;31.42;;;20.65;;
47812;SDS011;34221;45.296;9.516;2023-03-23T00:31:33;30.42;;;20.25;;
47812;SDS011;34221;45.296;9.516;2023-03-23T00:31:51;30.85;;;20.30;;
47812;SDS011;34221;45.296;9.516;2023-03-23T00:32:07;32.28;;;21.25;;
47812;SDS011;34221;45.296;9.516;2023-03-23T00:32:26;33.53;;;21.70;;
47812;SDS011;34221;45.296;9.516;2023-03-23T00:32:42;32.78;;;20.73;;
47812;SDS011;34221;45.296;9.516;2023-03-23T00:32:57;33.25;;;20.63;;
47812;SDS011;34221;45.296;9.516;2023-03-23T00:33:12;31.17;;;20.55;;
47812;SDS011;34221;45.296;9.516;2023-03-23T00:33:29;30.98;;;19.85;;
47812;SDS011;34221;45.296;9.516;2023-03-23T00:33:52;35.47;;;20.02;;
47812;SDS011;34221;45.296;9.516;2023-03-23T00:34:08;36.00;;;21.65;;
47812;SDS011;34221;45.296;9.516;2023-03-23T00:34:27;35.10;;;21.45;;
47812;SDS011;34221;45.296;9.516;2023-03-23T00:34:47;29.95;;;20.38;;
47812;SDS011;34221;45.296;9.516;2023-03-23T00:35:03;34.33;;;21.25;;
47812;SDS011;34221;45.296;9.516;2023-03-23T00:35:19;31.88;;;20.05;;
47812;SDS011;34221;45.296;9.516;2023-03-23T00:35:34;27.85;;;19.15;;
47812;SDS011;34221;45.296;9.516;2023-03-23T00:35:50;29.92;;;19.58;;
47812;SDS011;34221;45.296;9.516;2023-03-23T00:36:23;33.50;;;20.27;;
47812;SDS011;34221;45.296;9.516;2023-03-23T00:36:40;31.20;;;19.30;;
47812;SDS011;34221;45.296;9.516;2023-03-23T00:36:58;31.50;;;19.48;;
47812;SDS011;34221;45.296;9.516;2023-03-23T00:37:14;31.95;;;19.65;;
47812;SDS011;34221;45.296;9.516;2023-03-23T00:37:32;30.67;;;18.67;;
47812;SDS011;34221;45.296;9.516;2023-03-23T00:37:48;31.85;;;18.63;;
47812;SDS011;34221;45.296;9.516;2023-03-23T00:38:08;29.60;;;18.58;;
47812;SDS011;34221;45.296;9.516;2023-03-23T00:38:23;28.92;;;19.42;;
47812;SDS011;34221;45.296;9.516;2023-03-23T00:38:39;30.13;;;19.63;;
47812;SDS011;34221;45.296;9.516;2023-03-23T00:38:56;32.10;;;19.55;;
47812;SDS011;34221;45.296;9.516;2023-03-23T00:39:15;30.95;;;20.17;;
47812;SDS011;34221;45.296;9.516;2023-03-23T00:39:31;28.42;;;19.35;;
47812;SDS011;34221;45.296;9.516;2023-03-23T00:39:47;27.00;;;18.58;;
47812;SDS011;34221;45.296;9.516;2023-03-23T00:40:02;29.05;;;19.10;;
47812;SDS011;34221;45.296;9.516;2023-03-23T00:40:25;33.10;;;19.35;;
47812;SDS011;34221;45.296;9.516;2023-03-23T00:40:41;29.63;;;18.23;;
47812;SDS011;34221;45.296;9.516;2023-03-23T00:40:56;30.13;;;17.87;;
47812;SDS011;34221;45.296;9.516;2023-03-23T00:41:11;27.40;;;17.40;;
47812;SDS011;34221;45.296;9.516;2023-03-23T00:41:29;29.23;;;18.35;;
47812;SDS011;34221;45.296;9.516;2023-03-23T00:41:45;30.90;;;19.13;;
47812;SDS011;34221;45.296;9.516;2023-03-23T00:42:01;29.48;;;18.85;;
47812;SDS011;34221;45.296;9.516;2023-03-23T00:42:16;32.60;;;19.05;;
47812;SDS011;34221;45.296;9.516;2023-03-23T00:42:31;32.00;;;18.00;;
47812;SDS011;34221;45.296;9.516;2023-03-23T00:42:50;26.85;;;17.63;;
47812;SDS011;34221;45.296;9.516;2023-03-23T00:43:05;26.98;;;17.52;;
47812;SDS011;34221;45.296;9.516;2023-03-23T00:43:20;25.83;;;17.17;;
47812;SDS011;34221;45.296;9.516;2023-03-23T00:43:38;27.40;;;18.25;;
47812;SDS011;34221;45.296;9.516;2023-03-23T00:43:54;29.17;;;18.40;;
47812;SDS011;34221;45.296;9.516;2023-03-23T00:44:11;27.45;;;17.55;;
47812;SDS011;34221;45.296;9.516;2023-03-23T00:44:33;27.60;;;17.10;;
47812;SDS011;34221;45.296;9.516;2023-03-23T00:44:49;27.65;;;17.38;;
47812;SDS011;34221;45.296;9.516;2023-03-23T00:45:05;33.55;;;18.15;;
47812;SDS011;34221;45.296;9.516;2023-03-23T00:45:24;29.35;;;16.77;;
47812;SDS011;34221;45.296;9.516;2023-03-23T00:45:39;27.50;;;16.40;;
47812;SDS011;34221;45.296;9.516;2023-03-23T00:45:55;25.40;;;16.60;;
47812;SDS011;34221;45.296;9.516;2023-03-23T00:46:11;27.42;;;16.67;;
47812;SDS011;34221;45.296;9.516;2023-03-23T00:46:27;27.05;;;16.77;;
47812;SDS011;34221;45.296;9.516;2023-03-23T00:46:45;24.20;;;16.40;;
47812;SDS011;34221;45.296;9.516;2023-03-23T00:47:03;23.67;;;15.57;;
47812;SDS011;34221;45.296;9.516;2023-03-23T00:47:19;24.70;;;16.15;;
47812;SDS011;34221;45.296;9.516;2023-03-23T00:47:35;27.98;;;17.20;;
47812;SDS011;34221;45.296;9.516;2023-03-23T00:47:53;28.30;;;17.50;;
47812;SDS011;34221;45.296;9.516;2023-03-23T00:48:07;27.35;;;16.88;;
47812;SDS011;34221;45.296;9.516;2023-03-23T00:48:23;25.83;;;16.23;;
47812;SDS011;34221;45.296;9.516;2023-03-23T00:48:40;24.35;;;16.00;;
47812;SDS011;34221;45.296;9.516;2023-03-23T00:48:58;22.48;;;15.13;;
47812;SDS011;34221;45.296;9.516;2023-03-23T00:49:15;23.65;;;15.43;;
47812;SDS011;34221;45.296;9.516;2023-03-23T00:49:33;25.63;;;15.85;;
47812;SDS011;34221;45.296;9.516;2023-03-23T00:49:49;26.27;;;16.27;;
47812;SDS011;34221;45.296;9.516;2023-03-23T00:50:07;23.70;;;15.95;;
47812;SDS011;34221;45.296;9.516;2023-03-23T00:50:23;23.88;;;15.27;;
47812;SDS011;34221;45.296;9.516;2023-03-23T00:50:38;23.23;;;14.93;;
47812;SDS011;34221;45.296;9.516;2023-03-23T00:50:54;21.73;;;14.77;;
47812;SDS011;34221;45.296;9.516;2023-03-23T00:51:10;21.05;;;14.77;;
47812;SDS011;34221;45.296;9.516;2023-03-23T00:51:26;20.73;;;14.15;;
47812;SDS011;34221;45.296;9.516;2023-03-23T00:51:42;21.45;;;14.05;;
47812;SDS011;34221;45.296;9.516;2023-03-23T00:52:18;21.48;;;13.82;;
47812;SDS011;34221;45.296;9.516;2023-03-23T00:52:33;21.88;;;14.18;;
47812;SDS011;34221;45.296;9.516;2023-03-23T00:52:48;23.33;;;14.80;;
47812;SDS011;34221;45.296;9.516;2023-03-23T00:53:06;24.75;;;16.05;;
47812;SDS011;34221;45.296;9.516;2023-03-23T00:53:21;22.33;;;15.10;;
47812;SDS011;34221;45.296;9.516;2023-03-23T00:53:37;20.20;;;14.35;;
47812;SDS011;34221;45.296;9.516;2023-03-23T00:53:55;21.45;;;14.93;;
47812;SDS011;34221;45.296;9.516;2023-03-23T00:54:30;29.50;;;15.68;;
47812;SDS011;34221;45.296;9.516;2023-03-23T00:54:46;26.45;;;14.70;;
47812;SDS011;34221;45.296;9.516;2023-03-23T00:55:03;24.88;;;14.40;;
47812;SDS011;34221;45.296;9.516;2023-03-23T00:55:19;21.63;;;14.57;;
47812;SDS011;34221;45.296;9.516;2023-03-23T00:55:34;20.63;;;14.50;;
47812;SDS011;34221;45.296;9.516;2023-03-23T00:55:49;21.80;;;14.37;;
47812;SDS011;34221;45.296;9.516;2023-03-23T00:56:04;22.83;;;14.07;;
47812;SDS011;34221;45.296;9.516;2023-03-23T00:56:20;23.23;;;14.20;;
47812;SDS011;34221;45.296;9.516;2023-03-23T00:56:35;21.27;;;14.48;;
47812;SDS011;34221;45.296;9.516;2023-03-23T00:56:51;23.13;;;14.32;;
47812;SDS011;34221;45.296;9.516;2023-03-23T00:57:06;27.83;;;14.50;;
47812;SDS011;34221;45.296;9.516;2023-03-23T00:57:21;26.27;;;14.88;;
47812;SDS011;34221;45.296;9.516;2023-03-23T00:57:38;23.45;;;15.27;;
47812;SDS011;34221;45.296;9.516;2023-03-23T00:57:54;21.67;;;14.55;;
47812;SDS011;34221;45.296;9.516;2023-03-23T00:58:09;22.48;;;14.15;;
47812;SDS011;34221;45.296;9.516;2023-03-23T00:58:26;28.90;;;14.85;;
47812;SDS011;34221;45.296;9.516;2023-03-23T00:58:41;26.05;;;14.57;;
47812;SDS011;34221;45.296;9.516;2023-03-23T00:58:56;22.23;;;14.10;;
47812;SDS011;34221;45.296;9.516;2023-03-23T00:59:11;22.10;;;14.48;;
47812;SDS011;34221;45.296;9.516;2023-03-23T00:59:27;21.75;;;14.60;;
47812;SDS011;34221;45.296;9.516;2023-03-23T00:59:41;22.13;;;14.20;;
47812;SDS011;34221;45.296;9.516;2023-03-23T00:59:56;21.25;;;13.65;;
47812;SDS011;34221;45.296;9.516;2023-03-23T01:00:12;18.35;;;12.77;;
47812;SDS011;34221;45.296;9.516;2023-03-23T01:00:27;20.20;;;13.55;;
47812;SDS011;34221;45.296;9.516;2023-03-23T01:00:42;24.40;;;14.82;;
47812;SDS011;34221;45.296;9.516;2023-03-23T01:00:58;23.20;;;14.68;;
47812;SDS011;34221;45.296;9.516;2023-03-23T01:01:13;20.38;;;13.65;;
47812;SDS011;34221;45.296;9.516;2023-03-23T01:01:29;18.88;;;13.02;;
47812;SDS011;34221;45.296;9.516;2023-03-23T01:01:45;20.30;;;13.55;;
47812;SDS011;34221;45.296;9.516;2023-03-23T01:02:23;22.85;;;15.27;;
47812;SDS011;34221;45.296;9.516;2023-03-23T01:02:41;22.27;;;14.43;;
47812;SDS011;34221;45.296;9.516;2023-03-23T01:02:58;21.55;;;14.45;;
47812;SDS011;34221;45.296;9.516;2023-03-23T01:03:13;20.75;;;14.52;;
47812;SDS011;34221;45.296;9.516;2023-03-23T01:03:32;20.63;;;13.95;;
47812;SDS011;34221;45.296;9.516;2023-03-23T01:03:49;21.42;;;13.70;;
47812;SDS011;34221;45.296;9.516;2023-03-23T01:04:04;20.20;;;13.80;;
47812;SDS011;34221;45.296;9.516;2023-03-23T01:04:19;21.25;;;14.52;;
47812;SDS011;34221;45.296;9.516;2023-03-23T01:04:37;22.35;;;14.80;;
47812;SDS011;34221;45.296;9.516;2023-03-23T01:04:53;23.20;;;14.15;;
47812;SDS011;34221;45.296;9.516;2023-03-23T01:05:09;23.48;;;13.68;;
47812;SDS011;34221;45.296;9.516;2023-03-23T01:05:25;21.70;;;13.65;;
47812;SDS011;34221;45.296;9.516;2023-03-23T01:05:46;21.05;;;13.68;;
47812;SDS011;34221;45.296;9.516;2023-03-23T01:06:09;20.52;;;13.88;;
47812;SDS011;34221;45.296;9.516;2023-03-23T01:06:31;22.13;;;14.45;;
47812;SDS011;34221;45.296;9.516;2023-03-23T01:06:54;22.00;;;14.15;;
47812;SDS011;34221;45.296;9.516;2023-03-23T01:07:11;19.30;;;13.20;;
47812;SDS011;34221;45.296;9.516;2023-03-23T01:07:32;18.95;;;13.20;;
47812;SDS011;34221;45.296;9.516;2023-03-23T01:07:49;20.88;;;14.15;;
47812;SDS011;34221;45.296;9.516;2023-03-23T01:08:04;22.30;;;13.90;;
47812;SDS011;34221;45.296;9.516;2023-03-23T01:08:21;21.98;;;13.57;;
47812;SDS011;34221;45.296;9.516;2023-03-23T01:08:38;22.23;;;14.02;;
47812;SDS011;34221;45.296;9.516;2023-03-23T01:08:59;20.42;;;14.05;;
47812;SDS011;34221;45.296;9.516;2023-03-23T01:09:15;21.08;;;14.18;;
47812;SDS011;34221;45.296;9.516;2023-03-23T01:09:31;22.77;;;13.63;;
47812;SDS011;34221;45.296;9.516;2023-03-23T01:09:47;22.45;;;13.38;;
47812;SDS011;34221;45.296;9.516;2023-03-23T01:10:02;22.27;;;13.38;;
47812;SDS011;34221;45.296;9.516;2023-03-23T01:10:18;21.23;;;13.80;;
47812;SDS011;34221;45.296;9.516;2023-03-23T01:10:33;21.75;;;13.65;;
47812;SDS011;34221;45.296;9.516;2023-03-23T01:11:01;21.42;;;13.95;;
47812;SDS011;34221;45.296;9.516;2023-03-23T01:11:20;20.48;;;13.23;;
47812;SDS011;34221;45.296;9.516;2023-03-23T01:11:35;24.42;;;13.15;;
47812;SDS011;34221;45.296;9.516;2023-03-23T01:11:53;25.92;;;14.30;;
47812;SDS011;34221;45.296;9.516;2023-03-23T01:12:10;23.40;;;13.90;;
47812;SDS011;34221;45.296;9.516;2023-03-23T01:12:25;19.67;;;13.35;;
47812;SDS011;34221;45.296;9.516;2023-03-23T01:12:41;18.23;;;13.23;;
47812;SDS011;34221;45.296;9.516;2023-03-23T01:12:59;18.63;;;13.07;;
47812;SDS011;34221;45.296;9.516;2023-03-23T01:13:15;21.88;;;13.40;;
47812;SDS011;34221;45.296;9.516;2023-03-23T01:13:30;23.08;;;13.52;;
47812;SDS011;34221;45.296;9.516;2023-03-23T01:13:45;26.17;;;13.77;;
47812;SDS011;34221;45.296;9.516;2023-03-23T01:14:01;26.93;;;13.60;;
47812;SDS011;34221;45.296;9.516;2023-03-23T01:14:16;22.35;;;13.15;;
47812;SDS011;34221;45.296;9.516;2023-03-23T01:14:33;23.65;;;13.63;;
47812;SDS011;34221;45.296;9.516;2023-03-23T01:14:48;21.73;;;13.70;;
47812;SDS011;34221;45.296;9.516;2023-03-23T01:15:04;21.55;;;13.95;;
47812;SDS011;34221;45.296;9.516;2023-03-23T01:15:20;21.52;;;13.38;;
47812;SDS011;34221;45.296;9.516;2023-03-23T01:15:35;19.23;;;12.70;;
47812;SDS011;34221;45.296;9.516;2023-03-23T01:15:50;18.08;;;12.38;;
47812;SDS011;34221;45.296;9.516;2023-03-23T01:16:06;16.90;;;12.10;;
47812;SDS011;34221;45.296;9.516;2023-03-23T01:16:21;18.48;;;12.45;;
47812;SDS011;34221;45.296;9.516;2023-03-23T01:16:36;20.30;;;12.48;;
47812;SDS011;34221;45.296;9.516;2023-03-23T01:16:52;19.33;;;12.35;;
47812;SDS011;34221;45.296;9.516;2023-03-23T01:17:07;25.25;;;13.40;;
47812;SDS011;34221;45.296;9.516;2023-03-23T01:17:23;23.33;;;13.32;;
47812;SDS011;34221;45.296;9.516;2023-03-23T01:17:38;19.38;;;12.95;;
47812;SDS011;34221;45.296;9.516;2023-03-23T01:17:53;19.85;;;13.13;;
47812;SDS011;34221;45.296;9.516;2023-03-23T01:18:08;21.85;;;13.05;;
47812;SDS011;34221;45.296;9.516;2023-03-23T01:18:24;20.48;;;12.43;;
47812;SDS011;34221;45.296;9.516;2023-03-23T01:18:39;19.02;;;11.93;;
47812;SDS011;34221;45.296;9.516;2023-03-23T01:18:54;18.83;;;11.82;;
47812;SDS011;34221;45.296;9.516;2023-03-23T01:19:10;19.27;;;11.95;;
47812;SDS011;34221;45.296;9.516;2023-03-23T01:19:25;17.83;;;11.82;;
47812;SDS011;34221;45.296;9.516;2023-03-23T01:19:40;18.52;;;12.38;;
47812;SDS011;34221;45.296;9.516;2023-03-23T01:19:56;21.45;;;13.60;;
47812;SDS011;34221;45.296;9.516;2023-03-23T01:20:13;21.58;;;13.48;;
47812;SDS011;34221;45.296;9.516;2023-03-23T01:20:29;21.17;;;12.75;;
47812;SDS011;34221;45.296;9.516;2023-03-23T01:20:45;19.27;;;12.10;;
47812;SDS011;34221;45.296;9.516;2023-03-23T01:21:04;18.73;;;12.07;;
47812;SDS011;34221;45.296;9.516;2023-03-23T01:21:25;22.98;;;12.90;;
47812;SDS011;34221;45.296;9.516;2023-03-23T01:21:40;23.45;;;13.18;;
47812;SDS011;34221;45.296;9.516;2023-03-23T01:21:55;19.63;;;12.40;;
47812;SDS011;34221;45.296;9.516;2023-03-23T01:22:10;18.67;;;12.15;;
47812;SDS011;34221;45.296;9.516;2023-03-23T01:22:25;19.58;;;12.40;;
47812;SDS011;34221;45.296;9.516;2023-03-23T01:22:41;19.60;;;12.50;;
47812;SDS011;34221;45.296;9.516;2023-03-23T01:22:57;18.75;;;12.43;;
47812;SDS011;34221;45.296;9.516;2023-03-23T01:23:14;19.85;;;12.82;;
47812;SDS011;34221;45.296;9.516;2023-03-23T01:23:29;21.27;;;12.97;;
47812;SDS011;34221;45.296;9.516;2023-03-23T01:23:46;22.48;;;12.70;;
47812;SDS011;34221;45.296;9.516;2023-03-23T01:24:02;19.67;;;12.05;;
47812;SDS011;34221;45.296;9.516;2023-03-23T01:24:17;18.70;;;11.68;;
47812;SDS011;34221;45.296;9.516;2023-03-23T01:24:32;18.45;;;11.38;;
47812;SDS011;34221;45.296;9.516;2023-03-23T01:24:47;17.02;;;11.60;;
47812;SDS011;34221;45.296;9.516;2023-03-23T01:25:02;17.40;;;12.13;;
47812;SDS011;34221;45.296;9.516;2023-03-23T01:25:19;18.15;;;12.07;;
47812;SDS011;34221;45.296;9.516;2023-03-23T01:25:35;17.73;;;11.98;;
47812;SDS011;34221;45.296;9.516;2023-03-23T01:25:50;17.65;;;12.02;;
47812;SDS011;34221;45.296;9.516;2023-03-23T01:26:10;17.17;;;11.77;;
47812;SDS011;34221;45.296;9.516;2023-03-23T01:26:28;18.75;;;11.00;;
47812;SDS011;34221;45.296;9.516;2023-03-23T01:26:43;19.83;;;10.77;;
47812;SDS011;34221;45.296;9.516;2023-03-23T01:26:58;14.50;;;10.32;;
47812;SDS011;34221;45.296;9.516;2023-03-23T01:27:20;17.23;;;10.30;;
47812;SDS011;34221;45.296;9.516;2023-03-23T01:27:35;18.92;;;10.90;;
47812;SDS011;34221;45.296;9.516;2023-03-23T01:27:50;18.90;;;11.25;;
47812;SDS011;34221;45.296;9.516;2023-03-23T01:28:06;17.23;;;11.05;;
47812;SDS011;34221;45.296;9.516;2023-03-23T01:28:21;15.45;;;10.55;;
47812;SDS011;34221;45.296;9.516;2023-03-23T01:28:36;15.35;;;10.27;;
47812;SDS011;34221;45.296;9.516;2023-03-23T01:28:52;15.35;;;10.52;;
47812;SDS011;34221;45.296;9.516;2023-03-23T01:29:08;16.10;;;10.60;;
47812;SDS011;34221;45.296;9.516;2023-03-23T01:29:23;17.10;;;10.75;;
47812;SDS011;34221;45.296;9.516;2023-03-23T01:29:37;16.77;;;10.98;;
47812;SDS011;34221;45.296;9.516;2023-03-23T01:29:52;16.25;;;10.48;;
47812;SDS011;34221;45.296;9.516;2023-03-23T01:30:08;16.38;;;10.15;;
47812;SDS011;34221;45.296;9.516;2023-03-23T01:30:27;16.30;;;10.77;;
47812;SDS011;34221;45.296;9.516;2023-03-23T01:30:42;17.10;;;10.50;;
47812;SDS011;34221;45.296;9.516;2023-03-23T01:31:04;15.43;;;9.85;;
47812;SDS011;34221;45.296;9.516;2023-03-23T01:31:24;14.25;;;10.07;;
47812;SDS011;34221;45.296;9.516;2023-03-23T01:31:40;15.32;;;9.90;;
47812;SDS011;34221;45.296;9.516;2023-03-23T01:31:57;17.33;;;9.95;;
47812;SDS011;34221;45.296;9.516;2023-03-23T01:32:12;18.45;;;10.48;;
47812;SDS011;34221;45.296;9.516;2023-03-23T01:32:28;16.88;;;9.98;;
47812;SDS011;34221;45.296;9.516;2023-03-23T01:32:44;16.53;;;9.83;;
47812;SDS011;34221;45.296;9.516;2023-03-23T01:32:59;16.55;;;9.70;;
47812;SDS011;34221;45.296;9.516;2023-03-23T01:33:14;15.48;;;9.80;;
47812;SDS011;34221;45.296;9.516;2023-03-23T01:33:30;16.10;;;10.52;;
47812;SDS011;34221;45.296;9.516;2023-03-23T01:33:46;16.50;;;10.45;;
47812;SDS011;34221;45.296;9.516;2023-03-23T01:34:05;15.85;;;10.45;;
47812;SDS011;34221;45.296;9.516;2023-03-23T01:34:20;14.82;;;10.57;;
47812;SDS011;34221;45.296;9.516;2023-03-23T01:34:35;14.80;;;10.10;;
47812;SDS011;34221;45.296;9.516;2023-03-23T01:34:51;13.45;;;9.57;;
47812;SDS011;34221;45.296;9.516;2023-03-23T01:35:06;11.60;;;9.32;;
47812;SDS011;34221;45.296;9.516;2023-03-23T01:35:21;13.70;;;9.52;;
47812;SDS011;34221;45.296;9.516;2023-03-23T01:35:37;15.63;;;9.88;;
47812;SDS011;34221;45.296;9.516;2023-03-23T01:35:52;16.92;;;9.85;;
47812;SDS011;34221;45.296;9.516;2023-03-23T01:36:12;17.45;;;9.82;;
47812;SDS011;34221;45.296;9.516;2023-03-23T01:36:34;17.58;;;10.32;;
47812;SDS011;34221;45.296;9.516;2023-03-23T01:36:50;14.75;;;9.98;;
47812;SDS011;34221;45.296;9.516;2023-03-23T01:37:05;14.90;;;9.95;;
47812;SDS011;34221;45.296;9.516;2023-03-23T01:37:21;14.82;;;9.93;;
47812;SDS011;34221;45.296;9.516;2023-03-23T01:37:41;13.15;;;9.55;;
47812;SDS011;34221;45.296;9.516;2023-03-23T01:37:56;14.02;;;9.50;;
47812;SDS011;34221;45.296;9.516;2023-03-23T01:38:11;16.27;;;10.07;;
47812;SDS011;34221;45.296;9.516;2023-03-23T01:38:26;16.50;;;10.48;;
47812;SDS011;34221;45.296;9.516;2023-03-23T01:38:45;15.77;;;10.32;;
47812;SDS011;34221;45.296;9.516;2023-03-23T01:39:02;14.82;;;9.70;;